Time;durP1;ratioP1;P1;durP2;ratioP2;P2;SDS_P1;SDS_P2;PMS_P1;PMS_P2;Temp;Humidity;BMP_temperature;BMP_pressure;BME280_temperature;BME280_humidity;BME280_pressure;Samples;Min_cycle;Max_cycle;Signal;HPM_P1;HPM_P2
2022/11/06 00:01:06;;;;;;;24.50;16.38;;;;;;;;;;4973229;28;20082;-70
2022/11/06 00:03:32;;;;;;;23.92;15.65;;;;;;;;;;4973020;28;20050;-69
2022/11/06 00:08:44;;;;;;;20.85;15.48;;;;;;;;;;4972917;28;20046;-69
2022/11/06 00:11:15;;;;;;;21.92;15.80;;;;;;;;;;4978252;28;20424;-69
2022/11/06 00:13:42;;;;;;;22.55;16.65;;;;;;;;;;4989689;28;20513;-69
2022/11/06 00:16:09;;;;;;;21.40;16.38;;;;;;;;;;4986811;28;20080;-69
2022/11/06 00:18:37;;;;;;;23.75;16.70;;;;;;;;;;4992397;28;20054;-70
2022/11/06 00:21:12;;;;;;;23.52;16.05;;;;;;;;;;4992393;28;20050;-70
2022/11/06 00:23:39;;;;;;;29.88;19.27;;;;;;;;;;5007471;28;20463;-70
2022/11/06 00:26:13;;;;;;;26.05;19.35;;;;;;;;;;4992542;28;20054;-69
2022/11/06 00:28:40;;;;;;;27.23;18.60;;;;;;;;;;4992087;28;20077;-70
2022/11/06 00:31:15;;;;;;;24.80;17.55;;;;;;;;;;4992400;28;20089;-69
2022/11/06 00:33:41;;;;;;;23.77;16.52;;;;;;;;;;4992248;28;20524;-70
2022/11/06 00:36:15;;;;;;;20.33;14.98;;;;;;;;;;4992318;28;20050;-69
2022/11/06 00:38:42;;;;;;;18.67;14.73;;;;;;;;;;4991699;28;20085;-69
2022/11/06 00:41:10;;;;;;;21.05;14.57;;;;;;;;;;4992175;28;20108;-69
2022/11/06 00:43:37;;;;;;;20.15;14.70;;;;;;;;;;4992270;28;20413;-69
2022/11/06 00:46:06;;;;;;;20.40;15.07;;;;;;;;;;4992040;28;20082;-69
2022/11/06 00:48:33;;;;;;;23.75;15.60;;;;;;;;;;4991609;28;20050;-69
2022/11/06 00:51:12;;;;;;;21.15;15.05;;;;;;;;;;4992280;28;20054;-69
2022/11/06 00:53:38;;;;;;;18.30;14.27;;;;;;;;;;4992089;28;20141;-69
2022/11/06 00:56:07;;;;;;;19.45;14.63;;;;;;;;;;4992126;28;20078;-69
2022/11/06 00:58:33;;;;;;;19.15;14.30;;;;;;;;;;4991273;28;20085;-69
2022/11/06 01:01:12;;;;;;;19.92;14.88;;;;;;;;;;4992310;28;20078;-69
2022/11/06 01:03:39;;;;;;;18.58;14.45;;;;;;;;;;4992106;28;20042;-69
2022/11/06 01:06:16;;;;;;;22.13;15.05;;;;;;;;;;4990546;28;20109;-69
2022/11/06 01:08:44;;;;;;;21.52;15.15;;;;;;;;;;4990265;28;20058;-69
2022/11/06 01:11:20;;;;;;;20.65;14.73;;;;;;;;;;4991596;28;20101;-68
2022/11/06 01:13:52;;;;;;;18.33;12.90;;;;;;;;;;4992037;28;20054;-69
2022/11/06 01:16:19;;;;;;;18.40;14.50;;;;;;;;;;4995202;28;20082;-69
2022/11/06 01:18:46;;;;;;;15.95;13.45;;;;;;;;;;4995018;28;20054;-69
2022/11/06 01:21:18;;;;;;;16.30;11.82;;;;;;;;;;4995596;28;20146;-69
2022/11/06 01:23:45;;;;;;;15.98;12.30;;;;;;;;;;4995717;28;20051;-68
2022/11/06 01:26:13;;;;;;;16.73;13.23;;;;;;;;;;4994170;28;20120;-69
2022/11/06 01:28:40;;;;;;;16.00;12.73;;;;;;;;;;4993844;28;20054;-69
2022/11/06 01:31:09;;;;;;;20.25;13.70;;;;;;;;;;4995533;28;20050;-69
2022/11/06 01:33:36;;;;;;;16.02;12.73;;;;;;;;;;4995728;28;20046;-69
2022/11/06 01:36:03;;;;;;;17.42;12.85;;;;;;;;;;4993953;28;20077;-68
2022/11/06 01:38:29;;;;;;;16.33;13.07;;;;;;;;;;4994696;28;20054;-68
2022/11/06 01:40:56;;;;;;;25.65;15.23;;;;;;;;;;4995263;28;20207;-69
2022/11/06 01:43:49;;;;;;;44.05;15.27;;;;;;;;;;4995279;28;20125;-69
2022/11/06 01:46:17;;;;;;;39.83;13.87;;;;;;;;;;4995124;28;20077;-68
2022/11/06 01:48:56;;;;;;;43.05;16.63;;;;;;;;;;4994440;28;20105;-68
2022/11/06 01:51:24;;;;;;;68.07;16.02;;;;;;;;;;4994041;28;20050;-69
2022/11/06 01:53:50;;;;;;;23.77;13.55;;;;;;;;;;4993764;28;20105;-68
2022/11/06 01:56:17;;;;;;;19.83;11.93;;;;;;;;;;4994921;28;20153;-68
2022/11/06 01:58:44;;;;;;;21.48;11.82;;;;;;;;;;4993250;28;20050;-68
2022/11/06 02:01:11;;;;;;;18.58;11.02;;;;;;;;;;4993565;28;20088;-69
2022/11/06 02:03:39;;;;;;;28.60;12.05;;;;;;;;;;4994876;28;20089;-69
2022/11/06 02:06:06;;;;;;;24.30;12.38;;;;;;;;;;4993603;28;20146;-69
2022/11/06 02:08:32;;;;;;;27.85;11.98;;;;;;;;;;4992919;28;20461;-69
2022/11/06 02:10:59;;;;;;;21.42;12.18;;;;;;;;;;4994805;28;20050;-70
2022/11/06 02:13:44;;;;;;;20.13;12.60;;;;;;;;;;4994675;28;20105;-70
2022/11/06 02:16:30;;;;;;;25.85;12.23;;;;;;;;;;4994587;28;20556;-69
2022/11/06 02:19:02;;;;;;;31.38;13.13;;;;;;;;;;5008893;28;20104;-69
2022/11/06 02:22:03;;;;;;;16.80;12.27;;;;;;;;;;4994571;28;20054;-69
2022/11/06 02:24:38;;;;;;;19.17;11.38;;;;;;;;;;4997416;28;20050;-69
2022/11/06 02:27:19;;;;;;;30.08;11.60;;;;;;;;;;4994472;28;20054;-69
2022/11/06 02:30:08;;;;;;;17.00;11.20;;;;;;;;;;5008557;28;20081;-69
2022/11/06 02:32:37;;;;;;;22.00;11.63;;;;;;;;;;4978386;28;20043;-69
2022/11/06 02:35:27;;;;;;;28.00;11.88;;;;;;;;;;4974984;28;20129;-69
2022/11/06 02:37:58;;;;;;;18.35;12.02;;;;;;;;;;4986766;28;20469;-69
2022/11/06 02:40:30;;;;;;;20.45;10.75;;;;;;;;;;4989561;28;20116;-69
2022/11/06 02:42:57;;;;;;;21.30;11.82;;;;;;;;;;4989172;28;20398;-69
2022/11/06 02:45:24;;;;;;;21.20;12.18;;;;;;;;;;4973743;28;20047;-69
2022/11/06 02:47:53;;;;;;;21.88;11.00;;;;;;;;;;4972735;28;20046;-69
2022/11/06 02:50:31;;;;;;;34.25;11.48;;;;;;;;;;4973264;28;20560;-69
2022/11/06 02:53:05;;;;;;;19.75;10.90;;;;;;;;;;4973469;28;20051;-68
2022/11/06 02:55:39;;;;;;;14.05;10.65;;;;;;;;;;4957570;28;20046;-69
2022/11/06 02:58:10;;;;;;;17.85;12.07;;;;;;;;;;4972910;28;20394;-69
2022/11/06 03:00:37;;;;;;;21.83;11.27;;;;;;;;;;4977023;28;20057;-69
2022/11/06 03:03:26;;;;;;;16.48;11.43;;;;;;;;;;5008744;28;20047;-69
2022/11/06 03:05:56;;;;;;;18.30;11.70;;;;;;;;;;5007080;28;20058;-69
2022/11/06 03:08:32;;;;;;;20.40;12.57;;;;;;;;;;4992076;28;20469;-69
2022/11/06 03:11:18;;;;;;;20.98;13.40;;;;;;;;;;4992520;28;20097;-69
2022/11/06 03:13:50;;;;;;;20.30;13.52;;;;;;;;;;4992237;28;20492;-69
2022/11/06 03:16:41;;;;;;;20.58;13.55;;;;;;;;;;4992286;28;20132;-69
2022/11/06 03:19:28;;;;;;;24.67;13.05;;;;;;;;;;4978734;28;20457;-69
2022/11/06 03:22:01;;;;;;;26.52;13.50;;;;;;;;;;4991985;28;20054;-69
2022/11/06 03:24:31;;;;;;;20.63;12.82;;;;;;;;;;4993332;28;20058;-69
2022/11/06 03:26:58;;;;;;;31.67;13.32;;;;;;;;;;4993320;28;20105;-68
2022/11/06 03:29:35;;;;;;;30.88;13.20;;;;;;;;;;5007691;28;20425;-69
2022/11/06 03:32:16;;;;;;;31.60;12.38;;;;;;;;;;5008334;28;20437;-69
2022/11/06 03:35:15;;;;;;;35.72;13.02;;;;;;;;;;5007908;28;20529;-68
2022/11/06 03:37:46;;;;;;;39.83;12.35;;;;;;;;;;4988863;28;20108;-69
2022/11/06 03:40:15;;;;;;;34.53;11.55;;;;;;;;;;4992224;28;20047;-69
2022/11/06 03:42:42;;;;;;;42.53;11.77;;;;;;;;;;4992967;28;20520;-69
2022/11/06 03:45:12;;;;;;;31.58;12.27;;;;;;;;;;4991720;28;20054;-69
2022/11/06 03:48:03;;;;;;;31.38;12.95;;;;;;;;;;4991855;28;20089;-69
2022/11/06 03:50:36;;;;;;;52.67;11.38;;;;;;;;;;4996666;28;20059;-69
2022/11/06 03:53:12;;;;;;;15.07;10.48;;;;;;;;;;4991589;28;20092;-69
2022/11/06 03:55:45;;;;;;;30.75;12.70;;;;;;;;;;4992634;28;20058;-69
2022/11/06 03:58:15;;;;;;;31.10;11.75;;;;;;;;;;4991040;28;20050;-69
2022/11/06 04:00:42;;;;;;;35.63;12.35;;;;;;;;;;4991388;28;20060;-69
2022/11/06 04:03:25;;;;;;;22.50;11.80;;;;;;;;;;5007714;28;20399;-69
2022/11/06 04:05:59;;;;;;;30.63;12.40;;;;;;;;;;4991292;28;20456;-69
2022/11/06 04:14:01;;;;;;;27.02;12.50;;;;;;;;;;5011490;28;20092;-68
2022/11/06 04:16:40;;;;;;;29.15;12.52;;;;;;;;;;5010987;28;20053;-68
2022/11/06 04:19:16;;;;;;;35.47;12.02;;;;;;;;;;4995014;28;20046;-68
2022/11/06 04:22:06;;;;;;;26.15;12.85;;;;;;;;;;5012253;28;20054;-68
2022/11/06 04:27:41;;;;;;;40.55;11.82;;;;;;;;;;5002777;28;20053;-68
2022/11/06 04:30:09;;;;;;;24.08;11.80;;;;;;;;;;5010404;28;20050;-68
2022/11/06 04:32:41;;;;;;;33.70;12.77;;;;;;;;;;5025321;28;20053;-68
2022/11/06 04:35:26;;;;;;;43.20;12.30;;;;;;;;;;5009261;28;20050;-68
2022/11/06 04:38:11;;;;;;;67.43;12.68;;;;;;;;;;5001935;28;20105;-68
2022/11/06 04:40:57;;;;;;;29.25;12.75;;;;;;;;;;4991100;28;20380;-68
2022/11/06 04:43:46;;;;;;;26.50;12.50;;;;;;;;;;5001988;28;20382;-68
2022/11/06 04:46:19;;;;;;;28.42;12.38;;;;;;;;;;4991151;28;20132;-68
2022/11/06 04:48:46;;;;;;;36.20;12.43;;;;;;;;;;4990849;28;20436;-68
2022/11/06 04:51:12;;;;;;;30.88;12.43;;;;;;;;;;5026815;28;20088;-68
2022/11/06 04:53:39;;;;;;;43.22;12.57;;;;;;;;;;5014960;28;20077;-68
2022/11/06 04:56:09;;;;;;;20.25;11.38;;;;;;;;;;5030699;28;20096;-68
2022/11/06 04:58:36;;;;;;;31.02;11.15;;;;;;;;;;5015410;28;20050;-68
2022/11/06 05:01:03;;;;;;;23.73;12.80;;;;;;;;;;5005392;28;20045;-68
2022/11/06 05:03:29;;;;;;;30.70;12.02;;;;;;;;;;4999083;28;20052;-68
2022/11/06 05:05:56;;;;;;;29.83;10.48;;;;;;;;;;4996180;28;20101;-68
2022/11/06 05:08:23;;;;;;;16.73;11.63;;;;;;;;;;4995329;28;20050;-68
2022/11/06 05:10:49;;;;;;;26.20;11.07;;;;;;;;;;4996202;28;20050;-68
2022/11/06 05:13:16;;;;;;;21.00;10.82;;;;;;;;;;4996024;28;20046;-68
2022/11/06 05:15:42;;;;;;;33.88;11.90;;;;;;;;;;4995995;28;20088;-68
2022/11/06 05:18:09;;;;;;;30.15;11.65;;;;;;;;;;4995542;28;20080;-68
2022/11/06 05:20:36;;;;;;;20.88;11.95;;;;;;;;;;4995805;28;20141;-68
2022/11/06 05:23:03;;;;;;;15.23;10.75;;;;;;;;;;4995891;28;20046;-68
2022/11/06 05:25:35;;;;;;;16.70;11.50;;;;;;;;;;4995945;28;20094;-68
2022/11/06 05:28:05;;;;;;;17.27;11.13;;;;;;;;;;4993821;28;20501;-68
2022/11/06 05:30:33;;;;;;;19.88;10.93;;;;;;;;;;4995688;28;20058;-68
2022/11/06 05:33:00;;;;;;;31.77;11.50;;;;;;;;;;4995623;28;20046;-68
2022/11/06 05:35:27;;;;;;;19.60;11.15;;;;;;;;;;4995674;28;20468;-68
2022/11/06 05:38:03;;;;;;;20.70;10.13;;;;;;;;;;4994758;28;20100;-68
2022/11/06 05:40:29;;;;;;;30.42;13.43;;;;;;;;;;4995439;28;20104;-68
2022/11/06 05:42:56;;;;;;;20.15;11.38;;;;;;;;;;4995601;28;20058;-68
2022/11/06 05:45:22;;;;;;;19.60;12.35;;;;;;;;;;4995325;28;20050;-68
2022/11/06 05:47:49;;;;;;;17.98;11.40;;;;;;;;;;4999462;28;20109;-68
2022/11/06 05:50:16;;;;;;;24.40;13.43;;;;;;;;;;5004211;28;20057;-68
2022/11/06 05:52:42;;;;;;;21.33;11.43;;;;;;;;;;5014994;28;20053;-68
2022/11/06 05:55:09;;;;;;;18.08;11.52;;;;;;;;;;5014995;28;20534;-68
2022/11/06 05:57:41;;;;;;;25.40;12.18;;;;;;;;;;5014932;28;20054;-68
2022/11/06 06:00:09;;;;;;;35.72;11.40;;;;;;;;;;5014218;28;20096;-68
2022/11/06 06:02:36;;;;;;;43.92;11.60;;;;;;;;;;5014462;28;20116;-68
2022/11/06 06:05:04;;;;;;;20.25;10.95;;;;;;;;;;5014541;28;20045;-68
2022/11/06 06:07:30;;;;;;;42.40;11.18;;;;;;;;;;5002878;28;20105;-68
2022/11/06 06:09:57;;;;;;;27.23;13.05;;;;;;;;;;4994532;28;20051;-68
2022/11/06 06:12:25;;;;;;;16.73;10.60;;;;;;;;;;4995008;28;20113;-68
2022/11/06 06:14:52;;;;;;;17.98;10.38;;;;;;;;;;4994876;28;20057;-67
2022/11/06 06:17:19;;;;;;;33.47;10.70;;;;;;;;;;4994724;28;20051;-68
2022/11/06 06:19:46;;;;;;;30.55;11.63;;;;;;;;;;4994274;28;20050;-68
2022/11/06 06:22:13;;;;;;;34.72;11.30;;;;;;;;;;4994812;28;20103;-68
2022/11/06 06:24:40;;;;;;;45.00;9.90;;;;;;;;;;4994521;28;20186;-68
2022/11/06 06:27:07;;;;;;;59.60;10.18;;;;;;;;;;4996682;28;20061;-68
2022/11/06 06:29:33;;;;;;;43.13;9.13;;;;;;;;;;5013666;28;20131;-68
2022/11/06 06:32:00;;;;;;;57.78;10.07;;;;;;;;;;5014033;28;20108;-68
2022/11/06 06:34:26;;;;;;;28.85;10.15;;;;;;;;;;5014049;28;20050;-68
2022/11/06 06:36:53;;;;;;;23.42;8.90;;;;;;;;;;5013878;28;20571;-68
2022/11/06 06:39:20;;;;;;;23.05;9.00;;;;;;;;;;5013487;28;20075;-68
2022/11/06 06:41:47;;;;;;;41.38;8.10;;;;;;;;;;5011818;28;20531;-68
2022/11/06 06:44:14;;;;;;;14.30;7.07;;;;;;;;;;5011976;28;20104;-68
2022/11/06 06:46:40;;;;;;;14.30;7.53;;;;;;;;;;5011973;28;20096;-68
2022/11/06 06:49:07;;;;;;;14.32;7.80;;;;;;;;;;5011411;28;20050;-68
2022/11/06 06:51:34;;;;;;;15.40;7.78;;;;;;;;;;5011980;28;20547;-68
2022/11/06 06:54:00;;;;;;;16.90;8.05;;;;;;;;;;4991938;28;20074;-68
2022/11/06 06:56:27;;;;;;;35.70;8.70;;;;;;;;;;4992181;28;20129;-68
2022/11/06 06:58:54;;;;;;;24.73;7.30;;;;;;;;;;4993983;28;20054;-68
2022/11/06 07:01:20;;;;;;;21.52;8.38;;;;;;;;;;5000695;28;20046;-68
2022/11/06 07:03:47;;;;;;;21.92;9.95;;;;;;;;;;5003198;28;20134;-68
2022/11/06 07:06:14;;;;;;;29.23;9.32;;;;;;;;;;5003921;28;20088;-68
2022/11/06 07:08:40;;;;;;;18.90;9.55;;;;;;;;;;5010470;28;20104;-68
2022/11/06 07:11:07;;;;;;;27.83;10.07;;;;;;;;;;5011656;28;20104;-68
2022/11/06 07:13:34;;;;;;;22.98;9.20;;;;;;;;;;5010220;28;20316;-68
2022/11/06 07:16:03;;;;;;;40.15;11.07;;;;;;;;;;5011745;28;20157;-68
2022/11/06 07:18:30;;;;;;;14.18;9.35;;;;;;;;;;5010618;28;20073;-67
2022/11/06 07:20:57;;;;;;;24.35;11.15;;;;;;;;;;5010963;28;20054;-68
2022/11/06 07:23:24;;;;;;;46.85;9.75;;;;;;;;;;5026616;28;20559;-69
2022/11/06 07:25:52;;;;;;;24.08;9.65;;;;;;;;;;5011560;28;20089;-68
2022/11/06 07:28:20;;;;;;;15.82;9.85;;;;;;;;;;5010843;28;20108;-68
2022/11/06 07:30:46;;;;;;;20.15;10.23;;;;;;;;;;5011947;28;20480;-69
2022/11/06 07:33:13;;;;;;;22.48;9.68;;;;;;;;;;5011128;28;20065;-68
2022/11/06 07:35:39;;;;;;;23.77;10.05;;;;;;;;;;5011155;28;20061;-69
2022/11/06 07:38:06;;;;;;;22.65;8.98;;;;;;;;;;5010736;28;20115;-69
2022/11/06 07:40:33;;;;;;;38.72;9.63;;;;;;;;;;5010911;28;20488;-69
2022/11/06 07:43:04;;;;;;;16.02;9.30;;;;;;;;;;5011015;28;20054;-69
2022/11/06 07:45:31;;;;;;;15.95;9.55;;;;;;;;;;5010903;28;20049;-69
2022/11/06 07:47:58;;;;;;;13.60;9.27;;;;;;;;;;5009987;28;20054;-69
2022/11/06 07:50:25;;;;;;;14.68;8.98;;;;;;;;;;5011300;28;20574;-69
2022/11/06 07:52:52;;;;;;;19.27;9.80;;;;;;;;;;5011052;28;20053;-69
2022/11/06 07:55:19;;;;;;;15.50;10.20;;;;;;;;;;5010750;28;20566;-69
2022/11/06 07:57:45;;;;;;;13.63;9.93;;;;;;;;;;5010695;28;20343;-68
2022/11/06 08:00:12;;;;;;;14.90;10.75;;;;;;;;;;5010369;28;20050;-69
2022/11/06 08:02:39;;;;;;;17.67;9.98;;;;;;;;;;5010528;28;20058;-69
2022/11/06 08:05:06;;;;;;;14.70;11.10;;;;;;;;;;5010998;28;20089;-68
2022/11/06 08:07:33;;;;;;;26.65;13.50;;;;;;;;;;5010294;28;20568;-69
2022/11/06 08:10:00;;;;;;;15.32;11.07;;;;;;;;;;5010523;28;20096;-66
2022/11/06 08:12:26;;;;;;;13.95;10.65;;;;;;;;;;5010664;28;20057;-68
2022/11/06 08:14:53;;;;;;;17.33;9.40;;;;;;;;;;5012682;28;20046;-68
2022/11/06 08:17:19;;;;;;;13.77;9.50;;;;;;;;;;5012964;28;20075;-69
2022/11/06 08:19:46;;;;;;;13.98;10.30;;;;;;;;;;5011951;28;20440;-65
2022/11/06 08:22:13;;;;;;;12.57;9.55;;;;;;;;;;5012728;28;20054;-65
2022/11/06 08:24:39;;;;;;;13.57;9.00;;;;;;;;;;5012065;28;20082;-67
2022/11/06 08:27:06;;;;;;;10.63;8.25;;;;;;;;;;5012065;28;20058;-66
2022/11/06 08:29:33;;;;;;;13.40;9.75;;;;;;;;;;5011873;28;20105;-66
2022/11/06 08:32:06;;;;;;;14.38;10.90;;;;;;;;;;5012412;28;20413;-65
2022/11/06 08:34:34;;;;;;;16.25;11.05;;;;;;;;;;5012222;28;20053;-66
2022/11/06 08:37:01;;;;;;;15.90;11.98;;;;;;;;;;5011655;28;20085;-65
2022/11/06 08:39:28;;;;;;;15.23;11.40;;;;;;;;;;5011614;28;20057;-67
2022/11/06 08:41:54;;;;;;;14.82;10.90;;;;;;;;;;5010785;28;20133;-66
2022/11/06 08:44:23;;;;;;;12.65;10.20;;;;;;;;;;5012059;28;20104;-66
2022/11/06 08:46:49;;;;;;;12.45;9.30;;;;;;;;;;5012124;28;20096;-66
2022/11/06 08:49:18;;;;;;;15.73;10.65;;;;;;;;;;5011486;28;20050;-65
2022/11/06 08:51:44;;;;;;;11.38;9.50;;;;;;;;;;5012633;28;20087;-67
2022/11/06 08:54:11;;;;;;;12.50;9.50;;;;;;;;;;5012430;28;20417;-66
2022/11/06 08:56:37;;;;;;;12.50;10.15;;;;;;;;;;5012073;28;20049;-66
2022/11/06 08:59:04;;;;;;;15.77;10.68;;;;;;;;;;5011248;28;20054;-66
2022/11/06 09:01:31;;;;;;;13.15;10.45;;;;;;;;;;4993568;28;20601;-67
2022/11/06 09:03:58;;;;;;;11.30;9.40;;;;;;;;;;4996151;28;20141;-71
2022/11/06 09:06:25;;;;;;;15.55;10.52;;;;;;;;;;5000911;28;20077;-70
2022/11/06 09:08:54;;;;;;;15.77;11.45;;;;;;;;;;4999472;28;20068;-73
2022/11/06 09:11:25;;;;;;;15.30;11.38;;;;;;;;;;4982353;28;20255;-73
2022/11/06 09:13:52;;;;;;;14.15;11.48;;;;;;;;;;4979512;28;20113;-71
2022/11/06 09:16:18;;;;;;;11.90;10.00;;;;;;;;;;4998096;28;20088;-69
2022/11/06 09:18:46;;;;;;;11.65;9.70;;;;;;;;;;4998487;28;20124;-71
2022/11/06 09:21:13;;;;;;;14.45;9.90;;;;;;;;;;4975631;28;20082;-71
2022/11/06 09:23:39;;;;;;;13.43;10.68;;;;;;;;;;5002157;28;20050;-72
2022/11/06 09:26:06;;;;;;;12.38;9.55;;;;;;;;;;4993910;28;20051;-72
2022/11/06 09:28:33;;;;;;;13.30;10.40;;;;;;;;;;4998453;28;20046;-71
2022/11/06 09:31:00;;;;;;;16.13;11.73;;;;;;;;;;5002828;28;20049;-69
2022/11/06 09:33:27;;;;;;;14.32;10.75;;;;;;;;;;4998432;28;20045;-70
2022/11/06 09:35:54;;;;;;;13.50;10.50;;;;;;;;;;5001372;28;20050;-69
2022/11/06 09:38:20;;;;;;;15.52;11.23;;;;;;;;;;5002042;28;20042;-69
2022/11/06 09:41:22;;;;;;;14.43;9.98;;;;;;;;;;5000255;28;20062;-69
2022/11/06 09:43:58;;;;;;;13.43;10.98;;;;;;;;;;5001438;28;20419;-69
2022/11/06 09:46:33;;;;;;;16.55;11.02;;;;;;;;;;4999375;28;20051;-70
2022/11/06 09:49:34;;;;;;;17.23;11.82;;;;;;;;;;4995272;28;20054;-69
2022/11/06 09:52:30;;;;;;;15.43;10.40;;;;;;;;;;5003591;28;20065;-69
2022/11/06 09:55:18;;;;;;;13.80;10.15;;;;;;;;;;4998628;28;20464;-70
2022/11/06 09:57:53;;;;;;;15.10;9.35;;;;;;;;;;5010252;28;20058;-69
2022/11/06 10:00:20;;;;;;;13.05;9.98;;;;;;;;;;5002176;28;20046;-70
2022/11/06 10:03:29;;;;;;;14.00;9.43;;;;;;;;;;4986148;28;20505;-69
2022/11/06 10:05:56;;;;;;;13.25;9.65;;;;;;;;;;4996173;28;20058;-69
2022/11/06 10:08:24;;;;;;;12.85;9.35;;;;;;;;;;5012017;28;20052;-70
2022/11/06 10:11:17;;;;;;;13.57;8.88;;;;;;;;;;4984096;28;20047;-70
2022/11/06 10:14:15;;;;;;;11.93;8.63;;;;;;;;;;5015060;28;20058;-70
2022/11/06 10:16:49;;;;;;;12.43;9.30;;;;;;;;;;5001664;28;20305;-69
2022/11/06 10:19:40;;;;;;;11.93;9.32;;;;;;;;;;4998257;28;20154;-70
2022/11/06 10:22:06;;;;;;;11.30;8.75;;;;;;;;;;5000291;28;20509;-70
2022/11/06 10:24:55;;;;;;;13.60;9.10;;;;;;;;;;5003347;28;20042;-70
2022/11/06 10:27:32;;;;;;;11.88;8.00;;;;;;;;;;5000636;28;20054;-69
2022/11/06 10:30:02;;;;;;;10.40;7.90;;;;;;;;;;5000348;28;20097;-69
2022/11/06 10:32:40;;;;;;;11.45;7.82;;;;;;;;;;5006516;28;20504;-70
2022/11/06 10:35:13;;;;;;;10.85;8.15;;;;;;;;;;5000705;28;20092;-70
2022/11/06 10:38:02;;;;;;;8.68;6.38;;;;;;;;;;4997852;28;20047;-69
2022/11/06 10:40:30;;;;;;;8.82;6.95;;;;;;;;;;5010585;28;20045;-70
2022/11/06 10:43:23;;;;;;;9.90;7.47;;;;;;;;;;5003333;28;20101;-70
2022/11/06 10:45:54;;;;;;;8.90;7.20;;;;;;;;;;5000033;28;20046;-70
2022/11/06 10:48:30;;;;;;;10.10;7.20;;;;;;;;;;5009761;28;20472;-70
2022/11/06 10:51:24;;;;;;;10.68;7.47;;;;;;;;;;5003831;28;20081;-70
2022/11/06 10:54:03;;;;;;;7.93;6.65;;;;;;;;;;5000700;28;20062;-70
2022/11/06 10:56:41;;;;;;;8.25;6.30;;;;;;;;;;5003054;28;20046;-70
2022/11/06 10:59:08;;;;;;;7.35;5.72;;;;;;;;;;5001058;28;20203;-70
2022/11/06 11:01:34;;;;;;;8.57;6.13;;;;;;;;;;4998422;28;20096;-70
2022/11/06 11:04:01;;;;;;;7.93;5.30;;;;;;;;;;4998899;28;20505;-70
2022/11/06 11:06:28;;;;;;;8.05;5.90;;;;;;;;;;4982883;28;20046;-68
2022/11/06 11:08:54;;;;;;;7.65;5.55;;;;;;;;;;5002035;28;20131;-69
2022/11/06 11:11:25;;;;;;;8.05;6.10;;;;;;;;;;4998621;28;20073;-69
2022/11/06 11:13:55;;;;;;;7.60;6.18;;;;;;;;;;5002683;28;20187;-70
2022/11/06 11:16:27;;;;;;;7.10;5.25;;;;;;;;;;4997824;28;20069;-69
2022/11/06 11:18:53;;;;;;;7.65;5.53;;;;;;;;;;4999764;28;20054;-68
2022/11/06 11:21:26;;;;;;;6.40;5.30;;;;;;;;;;5002855;28;20060;-69
2022/11/06 11:23:59;;;;;;;7.40;5.97;;;;;;;;;;5004098;28;20501;-68
2022/11/06 11:26:27;;;;;;;7.68;6.10;;;;;;;;;;5004630;28;20173;-68
2022/11/06 11:28:55;;;;;;;7.47;5.63;;;;;;;;;;5009985;28;20112;-68
2022/11/06 11:31:30;;;;;;;7.50;4.95;;;;;;;;;;4975650;28;20105;-74
2022/11/06 11:34:01;;;;;;;6.63;4.90;;;;;;;;;;4994363;28;20258;-67
2022/11/06 11:37:01;;;;;;;6.38;4.70;;;;;;;;;;4999192;28;20050;-67
2022/11/06 11:39:36;;;;;;;8.05;5.15;;;;;;;;;;4998958;28;20420;-71
2022/11/06 11:42:28;;;;;;;6.75;5.28;;;;;;;;;;4999459;28;20100;-69
2022/11/06 11:45:13;;;;;;;4.15;3.65;;;;;;;;;;5001814;28;20105;-73
2022/11/06 11:47:45;;;;;;;5.00;4.07;;;;;;;;;;4997856;28;20057;-74
2022/11/06 11:50:18;;;;;;;5.40;4.22;;;;;;;;;;4989601;28;20057;-69
2022/11/06 11:52:46;;;;;;;3.97;3.30;;;;;;;;;;5001825;28;20342;-68
2022/11/06 11:55:16;;;;;;;4.53;3.70;;;;;;;;;;4995466;28;20115;-69
2022/11/06 11:57:43;;;;;;;4.65;3.28;;;;;;;;;;5000301;28;20057;-69
2022/11/06 12:00:17;;;;;;;4.90;3.30;;;;;;;;;;4978355;28;20058;-69
2022/11/06 12:02:52;;;;;;;3.28;2.70;;;;;;;;;;4981420;28;20419;-68
2022/11/06 12:05:38;;;;;;;2.90;2.58;;;;;;;;;;4998474;28;20073;-68
2022/11/06 12:08:05;;;;;;;3.17;2.47;;;;;;;;;;5003413;28;20116;-71
2022/11/06 12:10:39;;;;;;;2.95;2.58;;;;;;;;;;4993046;28;20074;-70
2022/11/06 12:13:11;;;;;;;2.05;1.85;;;;;;;;;;5000070;28;20416;-71
2022/11/06 12:15:59;;;;;;;3.85;2.30;;;;;;;;;;4993480;28;20046;-70
2022/11/06 12:18:38;;;;;;;2.30;2.10;;;;;;;;;;4993594;28;20050;-70
2022/11/06 12:21:12;;;;;;;1.90;1.60;;;;;;;;;;4995492;28;20096;-69
2022/11/06 12:23:45;;;;;;;2.03;1.77;;;;;;;;;;4995332;28;20049;-72
2022/11/06 12:26:33;;;;;;;2.05;1.85;;;;;;;;;;5002912;28;20099;-70
2022/11/06 12:29:26;;;;;;;1.90;1.70;;;;;;;;;;4994948;28;20050;-68
2022/11/06 12:32:16;;;;;;;2.08;1.88;;;;;;;;;;4995472;28;20050;-68
2022/11/06 12:34:49;;;;;;;2.30;2.10;;;;;;;;;;4993870;28;20481;-67
2022/11/06 12:37:42;;;;;;;2.17;1.60;;;;;;;;;;4980554;28;20053;-70
2022/11/06 12:40:16;;;;;;;1.47;1.37;;;;;;;;;;5002203;28;20349;-74
2022/11/06 12:43:05;;;;;;;1.70;1.60;;;;;;;;;;4997769;28;20053;-74
2022/11/06 12:45:46;;;;;;;2.17;1.98;;;;;;;;;;4995740;28;20054;-71
2022/11/06 12:48:33;;;;;;;1.90;1.70;;;;;;;;;;4982412;28;20085;-72
2022/11/06 12:51:11;;;;;;;2.00;1.80;;;;;;;;;;4985155;28;20054;-74
2022/11/06 12:54:25;;;;;;;2.28;2.08;;;;;;;;;;4996751;28;20050;-69
2022/11/06 12:57:04;;;;;;;2.67;2.45;;;;;;;;;;4994533;28;20050;-68
2022/11/06 12:59:39;;;;;;;2.83;2.53;;;;;;;;;;4997409;28;20285;-68
2022/11/06 13:02:23;;;;;;;2.78;2.30;;;;;;;;;;4997358;28;20074;-70
2022/11/06 13:04:59;;;;;;;2.47;2.15;;;;;;;;;;4995699;28;20054;-75
2022/11/06 13:07:48;;;;;;;1.88;1.70;;;;;;;;;;5000903;28;20053;-73
2022/11/06 13:10:21;;;;;;;3.53;1.90;;;;;;;;;;4999725;28;20099;-74
2022/11/06 13:13:16;;;;;;;2.13;1.92;;;;;;;;;;5001617;28;20077;-72
2022/11/06 13:16:07;;;;;;;3.40;2.03;;;;;;;;;;5000816;28;20137;-76
2022/11/06 13:18:38;;;;;;;2.58;2.20;;;;;;;;;;5005136;28;20193;-75
2022/11/06 13:21:16;;;;;;;2.15;1.95;;;;;;;;;;4985751;28;20096;-68
2022/11/06 13:23:50;;;;;;;2.33;2.13;;;;;;;;;;5000063;28;20079;-67
2022/11/06 13:26:23;;;;;;;2.25;2.05;;;;;;;;;;4999548;28;20042;-67
2022/11/06 13:28:54;;;;;;;1.88;1.67;;;;;;;;;;4999012;28;20458;-68
2022/11/06 13:31:24;;;;;;;3.25;2.28;;;;;;;;;;4992616;28;20046;-67
2022/11/06 13:33:53;;;;;;;2.20;1.98;;;;;;;;;;4984452;28;20054;-67
2022/11/06 13:36:20;;;;;;;2.85;2.55;;;;;;;;;;5000933;28;20042;-67
2022/11/06 13:38:51;;;;;;;2.78;2.33;;;;;;;;;;4997369;28;20097;-69
2022/11/06 13:41:29;;;;;;;2.50;2.15;;;;;;;;;;4983126;28;20579;-69
2022/11/06 13:44:01;;;;;;;4.63;2.33;;;;;;;;;;5002401;28;20077;-69
2022/11/06 13:46:55;;;;;;;2.50;2.30;;;;;;;;;;4998940;28;20100;-73
2022/11/06 13:49:31;;;;;;;2.80;2.50;;;;;;;;;;4997798;28;20497;-71
2022/11/06 13:52:03;;;;;;;2.28;2.08;;;;;;;;;;5018140;28;20057;-72
2022/11/06 13:54:52;;;;;;;2.72;2.22;;;;;;;;;;4993797;28;20078;-70
2022/11/06 13:57:24;;;;;;;2.38;1.90;;;;;;;;;;5003313;28;20070;-72
2022/11/06 14:00:18;;;;;;;2.08;1.88;;;;;;;;;;5000922;28;20440;-69
2022/11/06 14:02:54;;;;;;;3.40;3.10;;;;;;;;;;4999149;28;20054;-69
2022/11/06 14:05:40;;;;;;;3.15;2.85;;;;;;;;;;5004840;28;20042;-71
2022/11/06 14:08:31;;;;;;;2.13;1.92;;;;;;;;;;5004519;28;20058;-69
2022/11/06 14:11:04;;;;;;;4.50;2.00;;;;;;;;;;5000117;28;20061;-72
2022/11/06 14:13:33;;;;;;;3.00;2.40;;;;;;;;;;5014712;28;20103;-67
2022/11/06 14:16:05;;;;;;;3.38;2.58;;;;;;;;;;4998014;28;20060;-68
2022/11/06 14:18:32;;;;;;;4.28;3.15;;;;;;;;;;5002193;28;20054;-69
2022/11/06 14:21:34;;;;;;;3.22;2.88;;;;;;;;;;4980060;28;20092;-70
2022/11/06 14:24:16;;;;;;;2.42;2.22;;;;;;;;;;4998318;28;20050;-69
2022/11/06 14:26:48;;;;;;;2.60;2.40;;;;;;;;;;5001220;28;20097;-69
2022/11/06 14:29:27;;;;;;;2.70;2.50;;;;;;;;;;4998120;28;20527;-68
2022/11/06 14:32:18;;;;;;;3.88;2.63;;;;;;;;;;4998517;28;20050;-68
2022/11/06 14:34:44;;;;;;;2.78;2.22;;;;;;;;;;5002531;28;20531;-68
2022/11/06 14:37:17;;;;;;;2.28;2.00;;;;;;;;;;4997388;28;20046;-67
2022/11/06 14:39:50;;;;;;;3.25;2.33;;;;;;;;;;4997366;28;20089;-69
2022/11/06 14:42:38;;;;;;;2.58;2.22;;;;;;;;;;4997018;28;20578;-68
2022/11/06 14:45:05;;;;;;;3.63;2.72;;;;;;;;;;5005108;28;20120;-68
2022/11/06 14:47:40;;;;;;;3.30;2.67;;;;;;;;;;4998320;28;20054;-68
2022/11/06 14:50:19;;;;;;;2.90;2.63;;;;;;;;;;5008135;28;20108;-68
2022/11/06 14:52:54;;;;;;;3.58;3.17;;;;;;;;;;4999858;28;20046;-68
2022/11/06 14:55:28;;;;;;;3.38;2.80;;;;;;;;;;4997477;28;20100;-67
2022/11/06 14:58:10;;;;;;;2.78;2.58;;;;;;;;;;4997086;28;20042;-67
2022/11/06 15:00:49;;;;;;;3.22;2.92;;;;;;;;;;5002603;28;20602;-67
2022/11/06 15:03:21;;;;;;;3.42;2.60;;;;;;;;;;5018778;28;20078;-67
2022/11/06 15:05:48;;;;;;;2.70;2.50;;;;;;;;;;4996115;28;20097;-67
2022/11/06 15:08:47;;;;;;;2.95;2.65;;;;;;;;;;4998275;28;20056;-66
2022/11/06 15:11:28;;;;;;;3.10;2.80;;;;;;;;;;5000552;28;20585;-70